sensor_id;sensor_type;location;lat;lon;timestamp;temperature;humidity
25951;DHT22;13748;52.240;6.002;2023-03-01T00:01:04;-1.70;99.90
25951;DHT22;13748;52.240;6.002;2023-03-01T00:03:32;-1.70;99.90
25951;DHT22;13748;52.240;6.002;2023-03-01T00:06:00;-1.70;99.90
25951;DHT22;13748;52.240;6.002;2023-03-01T00:08:27;-1.70;99.90
25951;DHT22;13748;52.240;6.002;2023-03-01T00:11:24;-1.80;99.90
25951;DHT22;13748;52.240;6.002;2023-03-01T00:13:53;-1.80;99.90
25951;DHT22;13748;52.240;6.002;2023-03-01T00:16:23;-1.90;99.90
25951;DHT22;13748;52.240;6.002;2023-03-01T00:18:50;-1.90;99.90
25951;DHT22;13748;52.240;6.002;2023-03-01T00:21:17;-1.80;99.90
25951;DHT22;13748;52.240;6.002;2023-03-01T00:23:44;-1.90;99.90
25951;DHT22;13748;52.240;6.002;2023-03-01T00:26:13;-1.90;99.90
25951;DHT22;13748;52.240;6.002;2023-03-01T00:28:40;-1.90;99.90
25951;DHT22;13748;52.240;6.002;2023-03-01T00:31:13;-1.90;99.90
25951;DHT22;13748;52.240;6.002;2023-03-01T00:33:41;-1.90;99.90
25951;DHT22;13748;52.240;6.002;2023-03-01T00:36:09;-1.90;99.90
25951;DHT22;13748;52.240;6.002;2023-03-01T00:38:44;-2.00;99.90
25951;DHT22;13748;52.240;6.002;2023-03-01T00:41:14;-2.00;99.90
25951;DHT22;13748;52.240;6.002;2023-03-01T00:43:41;-2.00;99.90
25951;DHT22;13748;52.240;6.002;2023-03-01T00:46:14;-2.00;99.90
25951;DHT22;13748;52.240;6.002;2023-03-01T00:48:41;-2.00;99.90
25951;DHT22;13748;52.240;6.002;2023-03-01T00:51:13;-2.10;99.90
25951;DHT22;13748;52.240;6.002;2023-03-01T00:53:41;-2.10;99.90
25951;DHT22;13748;52.240;6.002;2023-03-01T00:56:10;-2.10;99.90
25951;DHT22;13748;52.240;6.002;2023-03-01T00:58:37;-2.10;99.90
25951;DHT22;13748;52.240;6.002;2023-03-01T01:01:12;-2.10;99.90
25951;DHT22;13748;52.240;6.002;2023-03-01T01:03:58;-2.10;99.90
25951;DHT22;13748;52.240;6.002;2023-03-01T01:06:29;-2.10;99.90
25951;DHT22;13748;52.240;6.002;2023-03-01T01:08:56;-2.20;99.90
25951;DHT22;13748;52.240;6.002;2023-03-01T01:11:25;-2.20;99.90
25951;DHT22;13748;52.240;6.002;2023-03-01T01:13:53;-2.20;99.90
25951;DHT22;13748;52.240;6.002;2023-03-01T01:16:22;-2.20;99.90
25951;DHT22;13748;52.240;6.002;2023-03-01T01:18:49;-2.20;99.90
25951;DHT22;13748;52.240;6.002;2023-03-01T01:21:19;-2.30;99.90
25951;DHT22;13748;52.240;6.002;2023-03-01T01:23:47;-2.30;99.90
25951;DHT22;13748;52.240;6.002;2023-03-01T01:26:25;-2.30;99.90
25951;DHT22;13748;52.240;6.002;2023-03-01T01:28:53;-2.30;99.90
25951;DHT22;13748;52.240;6.002;2023-03-01T01:31:21;-2.30;99.90
25951;DHT22;13748;52.240;6.002;2023-03-01T01:33:51;-2.30;99.90
25951;DHT22;13748;52.240;6.002;2023-03-01T01:36:18;-2.30;99.90
25951;DHT22;13748;52.240;6.002;2023-03-01T01:38:45;-2.40;99.90
25951;DHT22;13748;52.240;6.002;2023-03-01T01:41:12;-2.40;99.90
25951;DHT22;13748;52.240;6.002;2023-03-01T01:43:42;-2.40;99.90
25951;DHT22;13748;52.240;6.002;2023-03-01T01:46:26;-2.50;99.90
25951;DHT22;13748;52.240;6.002;2023-03-01T01:49:02;-2.50;99.90
25951;DHT22;13748;52.240;6.002;2023-03-01T01:51:36;-2.50;99.90
25951;DHT22;13748;52.240;6.002;2023-03-01T01:54:30;-2.50;99.90
25951;DHT22;13748;52.240;6.002;2023-03-01T01:57:02;-2.60;99.90
25951;DHT22;13748;52.240;6.002;2023-03-01T01:59:31;-2.60;99.90
25951;DHT22;13748;52.240;6.002;2023-03-01T02:02:02;-2.60;99.90
25951;DHT22;13748;52.240;6.002;2023-03-01T02:04:31;-2.60;99.90
25951;DHT22;13748;52.240;6.002;2023-03-01T02:07:13;-2.60;99.90
25951;DHT22;13748;52.240;6.002;2023-03-01T02:09:44;-2.60;99.90
25951;DHT22;13748;52.240;6.002;2023-03-01T02:12:13;-2.60;99.90
25951;DHT22;13748;52.240;6.002;2023-03-01T02:14:40;-2.60;99.90
25951;DHT22;13748;52.240;6.002;2023-03-01T02:17:07;-2.60;99.90
25951;DHT22;13748;52.240;6.002;2023-03-01T02:20:36;-2.60;99.90
25951;DHT22;13748;52.240;6.002;2023-03-01T02:22:54;-2.70;99.90
25951;DHT22;13748;52.240;6.002;2023-03-01T02:25:37;-2.70;99.90
25951;DHT22;13748;52.240;6.002;2023-03-01T02:30:48;-2.80;99.90
25951;DHT22;13748;52.240;6.002;2023-03-01T02:33:35;-2.70;99.90
25951;DHT22;13748;52.240;6.002;2023-03-01T02:36:14;-2.80;99.90
25951;DHT22;13748;52.240;6.002;2023-03-01T02:38:42;-2.80;99.90
25951;DHT22;13748;52.240;6.002;2023-03-01T02:41:10;-2.90;99.90
25951;DHT22;13748;52.240;6.002;2023-03-01T02:43:39;-2.80;99.90
25951;DHT22;13748;52.240;6.002;2023-03-01T02:46:16;-2.90;99.90
25951;DHT22;13748;52.240;6.002;2023-03-01T02:48:45;-2.90;99.90
25951;DHT22;13748;52.240;6.002;2023-03-01T02:56:53;-2.90;99.90
25951;DHT22;13748;52.240;6.002;2023-03-01T02:59:22;-3.00;99.90
25951;DHT22;13748;52.240;6.002;2023-03-01T03:01:49;-3.00;99.90
25951;DHT22;13748;52.240;6.002;2023-03-01T03:04:17;-3.00;99.90
25951;DHT22;13748;52.240;6.002;2023-03-01T03:06:49;-3.10;99.90
25951;DHT22;13748;52.240;6.002;2023-03-01T03:09:17;-3.00;99.90
25951;DHT22;13748;52.240;6.002;2023-03-01T03:11:44;-3.10;99.90
25951;DHT22;13748;52.240;6.002;2023-03-01T03:14:12;-3.10;99.90
25951;DHT22;13748;52.240;6.002;2023-03-01T03:16:45;-3.10;99.90
25951;DHT22;13748;52.240;6.002;2023-03-01T03:19:11;-3.10;99.90
25951;DHT22;13748;52.240;6.002;2023-03-01T03:21:39;-3.10;99.90
25951;DHT22;13748;52.240;6.002;2023-03-01T03:24:06;-3.10;99.90
25951;DHT22;13748;52.240;6.002;2023-03-01T03:26:32;-3.20;99.90
25951;DHT22;13748;52.240;6.002;2023-03-01T03:28:59;-3.20;99.90
25951;DHT22;13748;52.240;6.002;2023-03-01T03:31:26;-3.20;99.90
25951;DHT22;13748;52.240;6.002;2023-03-01T03:33:53;-3.20;99.90
25951;DHT22;13748;52.240;6.002;2023-03-01T03:36:22;-3.20;99.90
25951;DHT22;13748;52.240;6.002;2023-03-01T03:38:49;-3.20;99.90
25951;DHT22;13748;52.240;6.002;2023-03-01T03:41:17;-3.20;99.90
25951;DHT22;13748;52.240;6.002;2023-03-01T03:43:44;-3.20;99.90
25951;DHT22;13748;52.240;6.002;2023-03-01T03:46:11;-3.20;99.90
25951;DHT22;13748;52.240;6.002;2023-03-01T03:48:43;-3.20;99.90
25951;DHT22;13748;52.240;6.002;2023-03-01T03:51:15;-3.20;99.90
25951;DHT22;13748;52.240;6.002;2023-03-01T03:53:43;-3.30;99.90
25951;DHT22;13748;52.240;6.002;2023-03-01T03:56:11;-3.30;99.90
25951;DHT22;13748;52.240;6.002;2023-03-01T03:58:38;-3.30;99.90
25951;DHT22;13748;52.240;6.002;2023-03-01T04:01:05;-3.30;99.90
25951;DHT22;13748;52.240;6.002;2023-03-01T04:03:32;-3.30;99.90
25951;DHT22;13748;52.240;6.002;2023-03-01T04:06:02;-3.30;99.90
25951;DHT22;13748;52.240;6.002;2023-03-01T04:08:30;-3.30;99.90
25951;DHT22;13748;52.240;6.002;2023-03-01T04:11:01;-3.40;99.90
25951;DHT22;13748;52.240;6.002;2023-03-01T04:13:47;-3.40;99.90
25951;DHT22;13748;52.240;6.002;2023-03-01T04:16:14;-3.40;99.90
25951;DHT22;13748;52.240;6.002;2023-03-01T04:18:41;-3.40;99.90
25951;DHT22;13748;52.240;6.002;2023-03-01T04:21:07;-3.50;99.90
25951;DHT22;13748;52.240;6.002;2023-03-01T04:23:34;-3.40;99.90
25951;DHT22;13748;52.240;6.002;2023-03-01T04:26:01;-3.50;99.90
25951;DHT22;13748;52.240;6.002;2023-03-01T04:31:04;-3.50;99.90
25951;DHT22;13748;52.240;6.002;2023-03-01T04:33:44;-3.50;99.90
25951;DHT22;13748;52.240;6.002;2023-03-01T04:36:12;-3.50;99.90
25951;DHT22;13748;52.240;6.002;2023-03-01T04:38:40;-3.50;99.90
25951;DHT22;13748;52.240;6.002;2023-03-01T04:41:09;-3.50;99.90
25951;DHT22;13748;52.240;6.002;2023-03-01T04:43:39;-3.50;99.90
25951;DHT22;13748;52.240;6.002;2023-03-01T04:46:18;-3.50;99.90
25951;DHT22;13748;52.240;6.002;2023-03-01T04:48:45;-3.50;99.90
25951;DHT22;13748;52.240;6.002;2023-03-01T04:51:13;-3.50;99.90
25951;DHT22;13748;52.240;6.002;2023-03-01T04:53:41;-3.50;99.90
25951;DHT22;13748;52.240;6.002;2023-03-01T04:56:09;-3.50;99.90
25951;DHT22;13748;52.240;6.002;2023-03-01T04:58:36;-3.50;99.90
25951;DHT22;13748;52.240;6.002;2023-03-01T05:01:09;-3.50;99.90
25951;DHT22;13748;52.240;6.002;2023-03-01T05:03:49;-3.50;99.90
25951;DHT22;13748;52.240;6.002;2023-03-01T05:06:20;-3.50;99.90
25951;DHT22;13748;52.240;6.002;2023-03-01T05:08:47;-3.50;99.90
25951;DHT22;13748;52.240;6.002;2023-03-01T05:11:13;-3.50;99.90
25951;DHT22;13748;52.240;6.002;2023-03-01T05:13:41;-3.50;99.90
25951;DHT22;13748;52.240;6.002;2023-03-01T05:16:08;-3.60;99.90
25951;DHT22;13748;52.240;6.002;2023-03-01T05:18:38;-3.60;99.90
25951;DHT22;13748;52.240;6.002;2023-03-01T05:21:11;-3.60;99.90
25951;DHT22;13748;52.240;6.002;2023-03-01T05:23:38;-3.60;99.90
25951;DHT22;13748;52.240;6.002;2023-03-01T05:26:06;-3.70;99.90
25951;DHT22;13748;52.240;6.002;2023-03-01T05:28:51;-3.70;99.90
25951;DHT22;13748;52.240;6.002;2023-03-01T05:31:18;-3.70;99.90
25951;DHT22;13748;52.240;6.002;2023-03-01T05:33:45;-3.70;99.90
25951;DHT22;13748;52.240;6.002;2023-03-01T05:36:11;-3.70;99.90
25951;DHT22;13748;52.240;6.002;2023-03-01T05:38:38;-3.70;99.90
25951;DHT22;13748;52.240;6.002;2023-03-01T05:41:05;-3.80;99.90
25951;DHT22;13748;52.240;6.002;2023-03-01T05:43:43;-3.80;99.90
25951;DHT22;13748;52.240;6.002;2023-03-01T05:46:12;-3.80;99.90
25951;DHT22;13748;52.240;6.002;2023-03-01T05:48:40;-3.80;99.90
25951;DHT22;13748;52.240;6.002;2023-03-01T05:51:07;-3.80;99.90
25951;DHT22;13748;52.240;6.002;2023-03-01T05:53:33;-3.80;99.90
25951;DHT22;13748;52.240;6.002;2023-03-01T05:56:03;-3.80;99.90
25951;DHT22;13748;52.240;6.002;2023-03-01T05:58:30;-3.80;99.90
25951;DHT22;13748;52.240;6.002;2023-03-01T06:00:57;-3.80;99.90
25951;DHT22;13748;52.240;6.002;2023-03-01T06:03:24;-3.80;99.90
25951;DHT22;13748;52.240;6.002;2023-03-01T06:05:57;-3.80;99.90
25951;DHT22;13748;52.240;6.002;2023-03-01T06:08:24;-3.80;99.90
25951;DHT22;13748;52.240;6.002;2023-03-01T06:10:53;-3.80;99.90
25951;DHT22;13748;52.240;6.002;2023-03-01T06:13:20;-3.80;99.90
25951;DHT22;13748;52.240;6.002;2023-03-01T06:15:46;-3.80;99.90
25951;DHT22;13748;52.240;6.002;2023-03-01T06:18:13;-3.80;99.90
25951;DHT22;13748;52.240;6.002;2023-03-01T06:20:40;-3.80;99.90
25951;DHT22;13748;52.240;6.002;2023-03-01T06:23:06;-3.80;99.90
25951;DHT22;13748;52.240;6.002;2023-03-01T06:25:35;-3.80;99.90
25951;DHT22;13748;52.240;6.002;2023-03-01T06:28:02;-3.80;99.90
25951;DHT22;13748;52.240;6.002;2023-03-01T06:30:28;-3.80;99.90
25951;DHT22;13748;52.240;6.002;2023-03-01T06:32:56;-3.90;99.90
25951;DHT22;13748;52.240;6.002;2023-03-01T06:35:27;-3.80;99.90
25951;DHT22;13748;52.240;6.002;2023-03-01T06:37:57;-3.80;99.90
25951;DHT22;13748;52.240;6.002;2023-03-01T06:40:25;-3.80;99.90
25951;DHT22;13748;52.240;6.002;2023-03-01T06:42:52;-3.80;99.90
25951;DHT22;13748;52.240;6.002;2023-03-01T06:45:19;-3.80;99.90
25951;DHT22;13748;52.240;6.002;2023-03-01T06:47:47;-3.70;99.90
25951;DHT22;13748;52.240;6.002;2023-03-01T06:50:14;-3.70;99.90
25951;DHT22;13748;52.240;6.002;2023-03-01T06:52:41;-3.70;99.90
25951;DHT22;13748;52.240;6.002;2023-03-01T06:55:11;-3.70;99.90
25951;DHT22;13748;52.240;6.002;2023-03-01T06:57:37;-3.60;99.90
25951;DHT22;13748;52.240;6.002;2023-03-01T07:00:05;-3.60;99.90
25951;DHT22;13748;52.240;6.002;2023-03-01T07:02:32;-3.60;99.90
25951;DHT22;13748;52.240;6.002;2023-03-01T07:04:59;-3.60;99.90
25951;DHT22;13748;52.240;6.002;2023-03-01T07:07:26;-3.50;99.90
25951;DHT22;13748;52.240;6.002;2023-03-01T07:09:52;-3.40;99.90
25951;DHT22;13748;52.240;6.002;2023-03-01T07:12:19;-3.30;99.90
25951;DHT22;13748;52.240;6.002;2023-03-01T07:14:46;-3.00;99.90
25951;DHT22;13748;52.240;6.002;2023-03-01T07:17:13;-2.40;99.90
25951;DHT22;13748;52.240;6.002;2023-03-01T07:19:40;-1.70;99.90
25951;DHT22;13748;52.240;6.002;2023-03-01T07:22:06;-1.10;99.90
25951;DHT22;13748;52.240;6.002;2023-03-01T07:24:34;-0.80;99.90
25951;DHT22;13748;52.240;6.002;2023-03-01T07:27:01;-0.50;99.90
25951;DHT22;13748;52.240;6.002;2023-03-01T07:29:28;-0.30;99.90
25951;DHT22;13748;52.240;6.002;2023-03-01T07:31:55;-0.10;99.90
25951;DHT22;13748;52.240;6.002;2023-03-01T07:34:22;0.00;99.90
25951;DHT22;13748;52.240;6.002;2023-03-01T07:36:48;0.10;99.90
25951;DHT22;13748;52.240;6.002;2023-03-01T07:39:15;0.20;99.90
25951;DHT22;13748;52.240;6.002;2023-03-01T07:41:45;0.30;99.90
25951;DHT22;13748;52.240;6.002;2023-03-01T07:44:12;0.40;99.90
25951;DHT22;13748;52.240;6.002;2023-03-01T07:46:39;0.40;99.90
25951;DHT22;13748;52.240;6.002;2023-03-01T07:49:05;0.30;99.90
25951;DHT22;13748;52.240;6.002;2023-03-01T07:51:34;0.20;99.90
25951;DHT22;13748;52.240;6.002;2023-03-01T07:54:01;0.10;99.90
25951;DHT22;13748;52.240;6.002;2023-03-01T07:56:28;0.00;99.90
25951;DHT22;13748;52.240;6.002;2023-03-01T07:58:55;-0.10;99.90
25951;DHT22;13748;52.240;6.002;2023-03-01T08:01:22;-0.10;99.90
25951;DHT22;13748;52.240;6.002;2023-03-01T08:03:50;-0.10;99.90
25951;DHT22;13748;52.240;6.002;2023-03-01T08:06:17;-0.20;99.90
25951;DHT22;13748;52.240;6.002;2023-03-01T08:08:44;-0.20;99.90
25951;DHT22;13748;52.240;6.002;2023-03-01T08:11:13;-0.20;99.90
25951;DHT22;13748;52.240;6.002;2023-03-01T08:13:41;-0.20;99.90
25951;DHT22;13748;52.240;6.002;2023-03-01T08:16:11;-0.20;99.90
25951;DHT22;13748;52.240;6.002;2023-03-01T08:18:38;-0.20;99.90
25951;DHT22;13748;52.240;6.002;2023-03-01T08:21:17;-0.30;99.90
25951;DHT22;13748;52.240;6.002;2023-03-01T08:23:44;-0.30;99.90
25951;DHT22;13748;52.240;6.002;2023-03-01T08:26:19;-0.30;99.90
25951;DHT22;13748;52.240;6.002;2023-03-01T08:28:48;-0.30;99.90
25951;DHT22;13748;52.240;6.002;2023-03-01T08:31:18;-0.30;99.90
25951;DHT22;13748;52.240;6.002;2023-03-01T08:33:46;-0.30;99.90
25951;DHT22;13748;52.240;6.002;2023-03-01T08:36:18;-0.30;99.90
25951;DHT22;13748;52.240;6.002;2023-03-01T08:38:46;-0.20;99.90
25951;DHT22;13748;52.240;6.002;2023-03-01T08:41:13;-0.30;99.90
25951;DHT22;13748;52.240;6.002;2023-03-01T08:43:40;-0.20;99.90
25951;DHT22;13748;52.240;6.002;2023-03-01T08:46:07;-0.20;99.90
25951;DHT22;13748;52.240;6.002;2023-03-01T08:48:33;-0.20;99.90
25951;DHT22;13748;52.240;6.002;2023-03-01T08:51:18;-0.20;99.90
25951;DHT22;13748;52.240;6.002;2023-03-01T08:53:46;-0.10;99.90
25951;DHT22;13748;52.240;6.002;2023-03-01T08:56:13;-0.10;99.90
25951;DHT22;13748;52.240;6.002;2023-03-01T08:58:40;0.00;99.90
25951;DHT22;13748;52.240;6.002;2023-03-01T09:01:11;0.00;99.90
25951;DHT22;13748;52.240;6.002;2023-03-01T09:03:38;0.10;99.90
25951;DHT22;13748;52.240;6.002;2023-03-01T09:06:05;0.10;99.90
25951;DHT22;13748;52.240;6.002;2023-03-01T09:08:42;0.20;99.90
25951;DHT22;13748;52.240;6.002;2023-03-01T09:11:11;0.30;99.90
25951;DHT22;13748;52.240;6.002;2023-03-01T09:13:38;0.40;99.90
25951;DHT22;13748;52.240;6.002;2023-03-01T09:16:08;0.50;99.90
25951;DHT22;13748;52.240;6.002;2023-03-01T09:18:35;0.50;99.90
25951;DHT22;13748;52.240;6.002;2023-03-01T09:21:10;0.60;99.90
25951;DHT22;13748;52.240;6.002;2023-03-01T09:23:42;0.70;99.90
25951;DHT22;13748;52.240;6.002;2023-03-01T09:26:17;0.70;99.90
25951;DHT22;13748;52.240;6.002;2023-03-01T09:28:46;0.80;99.90
25951;DHT22;13748;52.240;6.002;2023-03-01T09:31:14;0.80;99.90
25951;DHT22;13748;52.240;6.002;2023-03-01T09:33:42;0.90;99.90
25951;DHT22;13748;52.240;6.002;2023-03-01T09:36:13;1.10;99.90
25951;DHT22;13748;52.240;6.002;2023-03-01T09:38:40;1.30;99.90
25951;DHT22;13748;52.240;6.002;2023-03-01T09:43:50;1.60;99.90
25951;DHT22;13748;52.240;6.002;2023-03-01T09:46:23;1.70;99.90
25951;DHT22;13748;52.240;6.002;2023-03-01T09:49:02;1.70;99.90
25951;DHT22;13748;52.240;6.002;2023-03-01T09:51:33;1.90;99.90
25951;DHT22;13748;52.240;6.002;2023-03-01T09:54:02;2.00;99.90
25951;DHT22;13748;52.240;6.002;2023-03-01T09:56:32;2.20;99.90
25951;DHT22;13748;52.240;6.002;2023-03-01T10:02:17;2.50;99.90
25951;DHT22;13748;52.240;6.002;2023-03-01T10:04:54;2.70;99.90
25951;DHT22;13748;52.240;6.002;2023-03-01T10:10:28;3.10;99.90
25951;DHT22;13748;52.240;6.002;2023-03-01T10:13:02;3.20;99.90
25951;DHT22;13748;52.240;6.002;2023-03-01T10:15:39;3.40;99.90
25951;DHT22;13748;52.240;6.002;2023-03-01T10:18:14;3.50;99.90
25951;DHT22;13748;52.240;6.002;2023-03-01T10:20:52;3.60;99.90
25951;DHT22;13748;52.240;6.002;2023-03-01T10:23:23;3.60;99.90
25951;DHT22;13748;52.240;6.002;2023-03-01T10:30:57;3.80;99.90
25951;DHT22;13748;52.240;6.002;2023-03-01T10:33:29;3.80;99.90
25951;DHT22;13748;52.240;6.002;2023-03-01T10:35:57;3.90;99.90
25951;DHT22;13748;52.240;6.002;2023-03-01T10:38:24;3.90;99.90
25951;DHT22;13748;52.240;6.002;2023-03-01T10:40:59;3.90;99.90
25951;DHT22;13748;52.240;6.002;2023-03-01T10:43:50;4.00;99.90
25951;DHT22;13748;52.240;6.002;2023-03-01T10:46:26;4.00;99.90
25951;DHT22;13748;52.240;6.002;2023-03-01T10:49:22;4.00;99.90
25951;DHT22;13748;52.240;6.002;2023-03-01T10:51:50;4.10;99.90
25951;DHT22;13748;52.240;6.002;2023-03-01T10:54:25;4.10;99.90
25951;DHT22;13748;52.240;6.002;2023-03-01T10:56:56;4.20;99.90
25951;DHT22;13748;52.240;6.002;2023-03-01T10:59:34;4.20;99.90
25951;DHT22;13748;52.240;6.002;2023-03-01T11:02:23;4.20;99.90
25951;DHT22;13748;52.240;6.002;2023-03-01T11:05:01;4.30;99.90
25951;DHT22;13748;52.240;6.002;2023-03-01T11:07:28;4.40;99.90
25951;DHT22;13748;52.240;6.002;2023-03-01T11:09:56;4.40;99.90
25951;DHT22;13748;52.240;6.002;2023-03-01T11:12:24;4.60;99.90
25951;DHT22;13748;52.240;6.002;2023-03-01T11:14:53;4.70;99.90
25951;DHT22;13748;52.240;6.002;2023-03-01T11:17:25;4.70;99.90
25951;DHT22;13748;52.240;6.002;2023-03-01T11:22:55;5.10;99.90
25951;DHT22;13748;52.240;6.002;2023-03-01T11:25:31;5.30;99.90
25951;DHT22;13748;52.240;6.002;2023-03-01T11:28:02;5.40;99.90
25951;DHT22;13748;52.240;6.002;2023-03-01T11:30:38;5.50;99.90
25951;DHT22;13748;52.240;6.002;2023-03-01T11:33:18;5.60;99.90
25951;DHT22;13748;52.240;6.002;2023-03-01T11:35:55;5.70;99.90
25951;DHT22;13748;52.240;6.002;2023-03-01T11:38:26;5.80;99.90
25951;DHT22;13748;52.240;6.002;2023-03-01T11:54:47;6.40;99.90
25951;DHT22;13748;52.240;6.002;2023-03-01T11:57:33;6.50;99.90
25951;DHT22;13748;52.240;6.002;2023-03-01T12:00:15;6.50;99.90
25951;DHT22;13748;52.240;6.002;2023-03-01T12:03:11;6.70;99.90
25951;DHT22;13748;52.240;6.002;2023-03-01T12:06:04;6.90;99.90
25951;DHT22;13748;52.240;6.002;2023-03-01T12:08:42;7.10;99.90
25951;DHT22;13748;52.240;6.002;2023-03-01T12:11:42;7.20;99.90
25951;DHT22;13748;52.240;6.002;2023-03-01T12:17:25;7.50;99.90
25951;DHT22;13748;52.240;6.002;2023-03-01T12:25:54;7.70;99.90
25951;DHT22;13748;52.240;6.002;2023-03-01T12:34:39;7.70;99.90
25951;DHT22;13748;52.240;6.002;2023-03-01T12:37:29;7.70;99.90
25951;DHT22;13748;52.240;6.002;2023-03-01T12:40:25;7.70;99.90
25951;DHT22;13748;52.240;6.002;2023-03-01T12:43:22;7.70;99.90
25951;DHT22;13748;52.240;6.002;2023-03-01T12:46:18;7.80;99.90
25951;DHT22;13748;52.240;6.002;2023-03-01T12:49:02;7.90;99.90
25951;DHT22;13748;52.240;6.002;2023-03-01T12:51:33;8.00;99.90
25951;DHT22;13748;52.240;6.002;2023-03-01T12:54:14;7.90;99.90
25951;DHT22;13748;52.240;6.002;2023-03-01T12:56:42;7.90;99.90
25951;DHT22;13748;52.240;6.002;2023-03-01T13:01:59;7.70;99.90
25951;DHT22;13748;52.240;6.002;2023-03-01T13:13:02;8.00;99.90
25951;DHT22;13748;52.240;6.002;2023-03-01T13:15:34;8.20;99.90
25951;DHT22;13748;52.240;6.002;2023-03-01T13:18:03;8.20;99.90
25951;DHT22;13748;52.240;6.002;2023-03-01T13:26:01;8.30;99.90
25951;DHT22;13748;52.240;6.002;2023-03-01T13:28:38;8.40;99.90
25951;DHT22;13748;52.240;6.002;2023-03-01T13:33:48;8.50;99.90
25951;DHT22;13748;52.240;6.002;2023-03-01T13:39:05;8.70;99.90
25951;DHT22;13748;52.240;6.002;2023-03-01T13:41:54;8.70;99.90
25951;DHT22;13748;52.240;6.002;2023-03-01T13:44:30;8.70;99.90
25951;DHT22;13748;52.240;6.002;2023-03-01T13:49:48;8.70;99.90
25951;DHT22;13748;52.240;6.002;2023-03-01T13:55:06;8.80;99.90
25951;DHT22;13748;52.240;6.002;2023-03-01T13:57:43;8.80;99.90
25951;DHT22;13748;52.240;6.002;2023-03-01T14:00:34;8.80;99.90
25951;DHT22;13748;52.240;6.002;2023-03-01T14:05:33;8.90;99.90
25951;DHT22;13748;52.240;6.002;2023-03-01T14:07:59;8.80;99.90
25951;DHT22;13748;52.240;6.002;2023-03-01T14:10:37;8.80;99.90
25951;DHT22;13748;52.240;6.002;2023-03-01T14:13:38;8.80;99.90
25951;DHT22;13748;52.240;6.002;2023-03-01T14:21:34;9.00;99.90
25951;DHT22;13748;52.240;6.002;2023-03-01T14:24:03;9.00;99.90
25951;DHT22;13748;52.240;6.002;2023-03-01T14:26:31;9.00;99.90
25951;DHT22;13748;52.240;6.002;2023-03-01T14:28:58;8.90;99.90
25951;DHT22;13748;52.240;6.002;2023-03-01T14:31:39;8.90;99.90
25951;DHT22;13748;52.240;6.002;2023-03-01T14:34:21;8.80;99.90
25951;DHT22;13748;52.240;6.002;2023-03-01T14:36:48;8.80;99.90
25951;DHT22;13748;52.240;6.002;2023-03-01T14:39:25;8.80;99.90
25951;DHT22;13748;52.240;6.002;2023-03-01T14:41:52;8.80;99.90
25951;DHT22;13748;52.240;6.002;2023-03-01T14:44:22;8.80;99.90
25951;DHT22;13748;52.240;6.002;2023-03-01T14:46:53;8.70;99.90
25951;DHT22;13748;52.240;6.002;2023-03-01T14:49:24;8.80;99.90
25951;DHT22;13748;52.240;6.002;2023-03-01T14:51:55;8.90;99.90
25951;DHT22;13748;52.240;6.002;2023-03-01T14:54:24;8.80;99.90
25951;DHT22;13748;52.240;6.002;2023-03-01T14:56:53;8.80;99.90
25951;DHT22;13748;52.240;6.002;2023-03-01T14:59:24;8.70;99.90
25951;DHT22;13748;52.240;6.002;2023-03-01T15:01:53;8.70;99.90
25951;DHT22;13748;52.240;6.002;2023-03-01T15:04:22;8.60;99.90
25951;DHT22;13748;52.240;6.002;2023-03-01T15:06:54;8.60;99.90
25951;DHT22;13748;52.240;6.002;2023-03-01T15:09:22;8.60;99.90
25951;DHT22;13748;52.240;6.002;2023-03-01T15:11:49;8.60;99.90
25951;DHT22;13748;52.240;6.002;2023-03-01T15:14:45;8.50;99.90
25951;DHT22;13748;52.240;6.002;2023-03-01T15:17:35;8.50;99.90
25951;DHT22;13748;52.240;6.002;2023-03-01T15:20:05;8.50;99.90
25951;DHT22;13748;52.240;6.002;2023-03-01T15:22:33;8.40;99.90
25951;DHT22;13748;52.240;6.002;2023-03-01T15:25:01;8.30;99.90
25951;DHT22;13748;52.240;6.002;2023-03-01T15:27:28;8.40;99.90
25951;DHT22;13748;52.240;6.002;2023-03-01T15:29:59;8.50;99.90
25951;DHT22;13748;52.240;6.002;2023-03-01T15:32:34;8.80;99.90
25951;DHT22;13748;52.240;6.002;2023-03-01T15:35:40;9.10;99.90
25951;DHT22;13748;52.240;6.002;2023-03-01T15:38:35;9.30;99.90
25951;DHT22;13748;52.240;6.002;2023-03-01T15:41:25;9.60;99.90
25951;DHT22;13748;52.240;6.002;2023-03-01T15:43:53;9.50;99.90
25951;DHT22;13748;52.240;6.002;2023-03-01T15:46:27;9.30;99.90
25951;DHT22;13748;52.240;6.002;2023-03-01T15:49:19;9.00;99.90
25951;DHT22;13748;52.240;6.002;2023-03-01T15:51:54;8.90;99.90
25951;DHT22;13748;52.240;6.002;2023-03-01T15:54:23;8.70;99.90
25951;DHT22;13748;52.240;6.002;2023-03-01T15:56:51;8.50;99.90
25951;DHT22;13748;52.240;6.002;2023-03-01T15:59:19;8.40;99.90
25951;DHT22;13748;52.240;6.002;2023-03-01T16:01:46;8.30;99.90
25951;DHT22;13748;52.240;6.002;2023-03-01T16:04:17;8.20;99.90
25951;DHT22;13748;52.240;6.002;2023-03-01T16:06:50;8.10;99.90
25951;DHT22;13748;52.240;6.002;2023-03-01T16:09:24;8.00;99.90
25951;DHT22;13748;52.240;6.002;2023-03-01T16:11:53;7.90;99.90
25951;DHT22;13748;52.240;6.002;2023-03-01T16:14:20;7.80;99.90
25951;DHT22;13748;52.240;6.002;2023-03-01T16:16:47;7.70;99.90
25951;DHT22;13748;52.240;6.002;2023-03-01T16:19:15;7.60;99.90
25951;DHT22;13748;52.240;6.002;2023-03-01T16:21:42;7.40;99.90
25951;DHT22;13748;52.240;6.002;2023-03-01T16:24:10;7.40;99.90
25951;DHT22;13748;52.240;6.002;2023-03-01T16:26:37;7.30;99.90
25951;DHT22;13748;52.240;6.002;2023-03-01T16:29:04;7.20;99.90
25951;DHT22;13748;52.240;6.002;2023-03-01T16:31:31;7.20;99.90
25951;DHT22;13748;52.240;6.002;2023-03-01T16:33:59;7.20;99.90
25951;DHT22;13748;52.240;6.002;2023-03-01T16:36:27;7.20;99.90
25951;DHT22;13748;52.240;6.002;2023-03-01T16:38:57;7.20;99.90
25951;DHT22;13748;52.240;6.002;2023-03-01T16:41:25;7.10;99.90
25951;DHT22;13748;52.240;6.002;2023-03-01T16:43:51;7.00;99.90
25951;DHT22;13748;52.240;6.002;2023-03-01T16:46:26;6.90;99.90
25951;DHT22;13748;52.240;6.002;2023-03-01T16:48:54;6.80;99.90
25951;DHT22;13748;52.240;6.002;2023-03-01T16:51:22;6.70;99.90
25951;DHT22;13748;52.240;6.002;2023-03-01T16:53:50;6.60;99.90
25951;DHT22;13748;52.240;6.002;2023-03-01T16:56:18;6.60;99.90
25951;DHT22;13748;52.240;6.002;2023-03-01T16:58:45;6.40;99.90
25951;DHT22;13748;52.240;6.002;2023-03-01T17:01:15;6.30;99.90
25951;DHT22;13748;52.240;6.002;2023-03-01T17:03:43;6.20;99.90
25951;DHT22;13748;52.240;6.002;2023-03-01T17:06:12;6.10;99.90
25951;DHT22;13748;52.240;6.002;2023-03-01T17:08:39;6.00;99.90
25951;DHT22;13748;52.240;6.002;2023-03-01T17:11:09;5.90;99.90
25951;DHT22;13748;52.240;6.002;2023-03-01T17:13:37;5.80;99.90
25951;DHT22;13748;52.240;6.002;2023-03-01T17:16:06;5.70;99.90
25951;DHT22;13748;52.240;6.002;2023-03-01T17:18:33;5.60;99.90
25951;DHT22;13748;52.240;6.002;2023-03-01T17:21:00;5.50;99.90
25951;DHT22;13748;52.240;6.002;2023-03-01T17:23:28;5.40;99.90
25951;DHT22;13748;52.240;6.002;2023-03-01T17:25:56;5.30;99.90
25951;DHT22;13748;52.240;6.002;2023-03-01T17:28:24;5.20;99.90
25951;DHT22;13748;52.240;6.002;2023-03-01T17:30:52;5.10;99.90
25951;DHT22;13748;52.240;6.002;2023-03-01T17:33:20;5.00;99.90
25951;DHT22;13748;52.240;6.002;2023-03-01T17:35:47;4.90;99.90